createdAt,value
2022-09-28T00:01:18.046Z,152
2022-09-28T00:03:19.644Z,168
2022-09-28T00:05:20.663Z,166
2022-09-28T00:07:22.236Z,172
2022-09-28T00:13:26.094Z,183
2022-09-28T00:15:27.499Z,183
2022-09-28T00:17:28.855Z,179
2022-09-28T00:19:29.928Z,179
2022-09-28T00:23:32.412Z,177
2022-09-28T00:25:34.355Z,186
2022-09-28T00:27:35.476Z,183
2022-09-28T00:29:37.266Z,169
2022-09-28T00:33:39.963Z,183
2022-09-28T00:35:41.096Z,179
2022-09-28T00:37:42.211Z,186
2022-09-28T00:39:43.280Z,179
2022-09-28T00:41:45.043Z,160
2022-09-28T00:43:46.981Z,170
2022-09-28T00:45:48.631Z,180
2022-09-28T00:47:50.260Z,183
2022-09-28T00:49:51.609Z,176
2022-09-28T00:51:53.143Z,168
2022-09-28T00:53:54.159Z,168
2022-09-28T00:55:55.703Z,181
2022-09-28T00:57:57.052Z,212
2022-09-28T00:59:58.419Z,186
2022-09-28T01:06:03.206Z,196
2022-09-28T01:08:04.593Z,128
2022-09-28T01:12:07.672Z,150
2022-09-28T01:14:09.331Z,133
2022-09-28T01:16:11.123Z,167
2022-09-28T01:18:12.775Z,179
2022-09-28T01:20:58.091Z,176
2022-09-28T01:22:59.403Z,176
2022-09-28T01:25:00.910Z,360
2022-09-28T01:27:01.933Z,150
2022-09-28T01:31:04.676Z,174
2022-09-28T01:33:06.487Z,155
2022-09-28T01:35:08.402Z,172
2022-09-28T01:37:10.199Z,360
2022-09-28T01:39:11.738Z,155
2022-09-28T01:43:14.732Z,155
2022-09-28T01:45:16.239Z,155
2022-09-28T01:47:17.350Z,155
2022-09-28T01:49:18.447Z,155
2022-09-28T01:51:20.014Z,177
2022-09-28T01:53:21.093Z,179
2022-09-28T01:55:22.706Z,180
2022-09-28T01:57:24.588Z,176
2022-09-28T01:59:25.908Z,155
2022-09-28T02:03:28.437Z,155
2022-09-28T02:05:30.333Z,155
2022-09-28T02:07:31.595Z,155
2022-09-28T02:09:33.913Z,156
2022-09-28T02:15:37.863Z,163
2022-09-28T02:17:39.402Z,163
2022-09-28T02:19:41.275Z,163
2022-09-28T02:21:42.987Z,163
2022-09-28T02:25:46.335Z,189
2022-09-28T02:27:47.888Z,151
2022-09-28T02:29:49.569Z,151
2022-09-28T02:31:51.033Z,152
2022-09-28T02:35:54.531Z,152
2022-09-28T02:37:55.865Z,163
2022-09-28T02:41:58.766Z,163
2022-09-28T02:46:01.659Z,163
2022-09-28T02:48:02.921Z,163
2022-09-28T02:50:04.410Z,162
2022-09-28T02:52:06.185Z,163
2022-09-28T02:56:09.265Z,173
2022-09-28T02:58:10.230Z,173
2022-09-28T03:02:12.689Z,174
2022-09-28T03:04:14.186Z,174
2022-09-28T03:06:15.629Z,174
2022-09-28T03:08:16.676Z,174
2022-09-28T03:14:21.372Z,174
2022-09-28T03:16:22.462Z,167
2022-09-28T03:18:23.845Z,168
2022-09-28T03:20:25.565Z,168
2022-09-28T03:24:28.917Z,168
2022-09-28T03:28:31.605Z,168
2022-09-28T03:30:32.828Z,168
2022-09-28T03:34:35.613Z,168
2022-09-28T03:36:37.301Z,168
2022-09-28T03:38:38.792Z,168
2022-09-28T03:40:40.450Z,168
2022-09-28T03:42:41.521Z,168
2022-09-28T03:44:43.311Z,168
2022-09-28T03:46:44.869Z,168
2022-09-28T03:48:45.947Z,168
2022-09-28T03:50:47.115Z,168
2022-09-28T03:52:48.536Z,168
2022-09-28T03:54:49.569Z,168
2022-09-28T03:56:50.857Z,168
2022-09-28T03:58:51.829Z,168
2022-09-28T04:00:53.447Z,168
2022-09-28T04:02:55.244Z,168
2022-09-28T04:06:58.929Z,168
2022-09-28T04:09:00.480Z,168
2022-09-28T04:13:03.650Z,168
2022-09-28T04:17:05.857Z,168
2022-09-28T04:19:07.611Z,168
2022-09-28T04:21:08.981Z,168
2022-09-28T04:23:09.892Z,168
2022-09-28T04:27:13.160Z,168
2022-09-28T04:29:14.230Z,168
2022-09-28T04:31:16.040Z,168
2022-09-28T04:33:17.393Z,168
2022-09-28T04:39:21.264Z,168
2022-09-28T04:41:22.814Z,168
2022-09-28T04:43:23.861Z,168
2022-09-28T04:45:25.662Z,168
2022-09-28T04:49:29.053Z,169
2022-09-28T04:51:30.414Z,168
2022-09-28T04:53:31.619Z,169
2022-09-28T04:55:33.229Z,168
2022-09-28T04:59:36.251Z,168
2022-09-28T05:01:38.071Z,168
2022-09-28T05:03:39.979Z,168
2022-09-28T05:05:41.885Z,188
2022-09-28T05:09:45.127Z,223
2022-09-28T05:11:46.938Z,227
2022-09-28T05:13:48.759Z,221
2022-09-28T05:15:52.803Z,221
2022-09-28T05:19:54.057Z,221
2022-09-28T05:21:55.452Z,221
2022-09-28T05:23:57.366Z,221
2022-09-28T05:25:58.557Z,172
2022-09-28T05:27:59.721Z,174
2022-09-28T05:32:03.485Z,174
2022-09-28T05:34:04.476Z,174
2022-09-28T05:36:06.422Z,174
2022-09-28T05:38:08.021Z,174
2022-09-28T05:42:11.351Z,174
2022-09-28T05:44:12.370Z,174
2022-09-28T05:46:13.916Z,174
2022-09-28T05:48:15.385Z,174
2022-09-28T05:50:16.620Z,174
2022-09-28T05:52:17.579Z,174
2022-09-28T05:54:18.903Z,174
2022-09-28T05:56:20.570Z,174
2022-09-28T05:58:22.307Z,174
2022-09-28T06:00:23.634Z,174
2022-09-28T06:04:26.873Z,174
2022-09-28T06:06:28.247Z,174
2022-09-28T06:10:31.069Z,174
2022-09-28T06:14:33.165Z,187
2022-09-28T06:16:35.215Z,198
2022-09-28T06:18:36.881Z,198
2022-09-28T06:20:38.254Z,198
2022-09-28T06:24:41.985Z,204
2022-09-28T06:26:43.028Z,206
2022-09-28T06:28:44.565Z,206
2022-09-28T06:30:46.372Z,206
2022-09-28T06:34:52.825Z,360
2022-09-28T06:36:50.581Z,213
2022-09-28T06:38:52.353Z,252
2022-09-28T06:40:53.355Z,207
2022-09-28T06:42:54.700Z,210
2022-09-28T06:46:57.799Z,197
2022-09-28T06:48:59.721Z,197
2022-09-28T06:51:00.856Z,197
2022-09-28T06:53:02.737Z,216
2022-09-28T06:57:05.621Z,216
2022-09-28T06:59:07.412Z,216
2022-09-28T07:03:10.835Z,216
2022-09-28T07:07:13.005Z,224
2022-09-28T07:09:25.096Z,202
2022-09-28T07:11:16.056Z,202
2022-09-28T07:13:35.981Z,202
2022-09-28T07:17:21.627Z,202
2022-09-28T07:19:23.524Z,202
2022-09-28T07:23:25.686Z,202
2022-09-28T07:25:26.827Z,250
2022-09-28T07:29:29.990Z,250
2022-09-28T07:35:32.956Z,250
2022-09-28T07:37:34.258Z,191
2022-09-28T07:39:35.880Z,191
2022-09-28T07:41:37.010Z,214
2022-09-28T07:45:40.178Z,214
2022-09-28T07:47:41.507Z,214
2022-09-28T07:49:50.740Z,214
2022-09-28T07:51:44.008Z,214
2022-09-28T07:55:46.687Z,214
2022-09-28T07:57:47.640Z,214
2022-09-28T07:59:49.498Z,214
2022-09-28T08:01:50.560Z,214
2022-09-28T08:03:51.799Z,214
2022-09-28T08:04:35.624Z,214
2022-09-28T08:06:36.988Z,229
2022-09-28T08:08:38.855Z,275
2022-09-28T08:10:43.404Z,275
2022-09-28T08:12:41.914Z,275
2022-09-28T08:14:43.683Z,220
2022-09-28T08:16:46.721Z,223
2022-09-28T08:18:47.368Z,224
2022-09-28T08:22:50.194Z,193
2022-09-28T08:24:51.567Z,199
2022-09-28T08:26:53.446Z,188
2022-09-28T08:28:54.677Z,188
2022-09-28T08:32:57.398Z,251
2022-09-28T08:34:58.821Z,213
2022-09-28T08:37:00.124Z,229
2022-09-28T08:39:01.029Z,229
2022-09-28T08:41:02.636Z,217
2022-09-28T08:43:03.552Z,260
2022-09-28T08:45:04.698Z,260
2022-09-28T08:47:05.958Z,260
2022-09-28T08:49:24.019Z,260
2022-09-28T08:55:11.664Z,237
2022-09-28T08:57:13.102Z,232
2022-09-28T08:59:14.082Z,233
2022-09-28T09:01:15.723Z,233
2022-09-28T09:03:16.912Z,227
2022-09-28T09:05:18.579Z,118
2022-09-28T09:07:19.908Z,360
2022-09-28T09:11:22.392Z,315
2022-09-28T09:15:25.687Z,315
2022-09-28T09:17:26.609Z,315
2022-09-28T09:21:29.636Z,233
2022-09-28T09:25:36.541Z,224
2022-09-28T09:27:34.126Z,220
2022-09-28T09:31:36.714Z,97
2022-09-28T09:35:39.590Z,330
2022-09-28T09:37:40.875Z,360
2022-09-28T09:41:43.209Z,227
2022-09-28T09:43:44.784Z,227
2022-09-28T09:45:46.325Z,231
2022-09-28T09:47:47.738Z,231
2022-09-28T09:49:49.139Z,231
2022-09-28T09:51:50.547Z,220
2022-09-28T09:53:52.155Z,234
2022-09-28T09:55:53.682Z,234
2022-09-28T09:57:54.746Z,234
2022-09-28T09:59:56.251Z,225
2022-09-28T10:03:59.375Z,260
2022-09-28T10:06:01.102Z,165
2022-09-28T10:08:02.172Z,218
2022-09-28T10:10:03.902Z,217
2022-09-28T10:14:06.878Z,218
2022-09-28T10:16:07.856Z,207
2022-09-28T10:18:09.177Z,197
2022-09-28T10:20:10.506Z,198
2022-09-28T10:24:12.756Z,227
2022-09-28T10:26:14.441Z,243
2022-09-28T10:28:15.510Z,293
2022-09-28T10:32:17.611Z,260
2022-09-28T10:34:18.596Z,212
2022-09-28T10:36:19.725Z,248
2022-09-28T10:40:22.906Z,247
2022-09-28T10:42:24.301Z,250
2022-09-28T10:46:27.325Z,270
2022-09-28T10:48:28.816Z,231
2022-09-28T10:50:30.155Z,236
2022-09-28T10:52:31.437Z,236
2022-09-28T10:56:33.948Z,234
2022-09-28T10:58:35.793Z,234
2022-09-28T11:02:39.270Z,360
2022-09-28T11:06:42.298Z,238
2022-09-28T11:08:44.477Z,233
2022-09-28T11:10:45.594Z,266
2022-09-28T11:12:46.481Z,201
2022-09-28T11:18:50.119Z,216
2022-09-28T11:20:51.988Z,198
2022-09-28T11:22:53.678Z,217
2022-09-28T11:24:55.208Z,213
2022-09-28T11:28:57.666Z,223
2022-09-28T11:30:59.069Z,279
2022-09-28T11:33:00.161Z,238
2022-09-28T11:35:01.230Z,238
2022-09-28T11:39:03.844Z,224
2022-09-28T11:41:05.349Z,221
2022-09-28T11:45:08.343Z,231
2022-09-28T11:49:10.580Z,205
2022-09-28T11:51:12.276Z,238
2022-09-28T11:55:14.821Z,223
2022-09-28T11:59:17.411Z,251
2022-09-28T12:01:19.117Z,229
2022-09-28T12:05:21.566Z,235
2022-09-28T12:07:22.485Z,235
2022-09-28T12:09:23.459Z,288
2022-09-28T12:11:25.188Z,229
2022-09-28T12:15:27.973Z,228
2022-09-28T12:17:29.468Z,229
2022-09-28T12:19:30.404Z,254
2022-09-28T12:21:31.834Z,226
2022-09-28T12:23:32.935Z,227
2022-09-28T12:27:35.508Z,213
2022-09-28T12:29:36.694Z,301
2022-09-28T12:31:38.546Z,212
2022-09-28T12:33:39.393Z,221
2022-09-28T12:37:41.981Z,235
2022-09-28T12:39:56.863Z,236
2022-09-28T12:41:43.896Z,236
2022-09-28T12:43:45.478Z,239
2022-09-28T12:46:07.010Z,168
2022-09-28T12:47:47.403Z,236
2022-09-28T12:51:49.920Z,230
2022-09-28T12:53:51.455Z,243
2022-09-28T12:57:54.168Z,235
2022-09-28T12:59:55.052Z,235
2022-09-28T13:01:56.682Z,209
2022-09-28T13:03:58.383Z,232
2022-09-28T13:05:59.375Z,239
2022-09-28T13:10:01.357Z,238
2022-09-28T13:12:02.594Z,220
2022-09-28T13:16:05.893Z,221
2022-09-28T13:20:09.271Z,93
2022-09-28T13:22:10.185Z,360
2022-09-28T13:26:13.023Z,246
2022-09-28T13:30:15.655Z,226
2022-09-28T13:32:17.022Z,223
2022-09-28T13:36:19.026Z,206
2022-09-28T13:38:20.406Z,201
2022-09-28T13:42:23.597Z,172
2022-09-28T13:44:25.141Z,167
2022-09-28T13:46:26.489Z,168
2022-09-28T13:48:27.203Z,225
2022-09-28T13:50:28.848Z,197
2022-09-28T13:52:29.893Z,197
2022-09-28T13:58:34.145Z,360
2022-09-28T14:00:35.067Z,209
2022-09-28T14:02:36.801Z,209
2022-09-28T14:04:38.219Z,209
2022-09-28T14:08:40.460Z,209
2022-09-28T14:10:42.310Z,209
2022-09-28T14:12:43.281Z,209
2022-09-28T14:14:44.861Z,209
2022-09-28T14:18:46.864Z,209
2022-09-28T14:20:48.144Z,209
2022-09-28T14:22:49.071Z,209
2022-09-28T14:24:50.948Z,209
2022-09-28T14:26:52.638Z,209
2022-09-28T14:28:54.470Z,209
2022-09-28T14:30:55.565Z,207
2022-09-28T14:32:56.845Z,206
2022-09-28T14:34:58.479Z,206
2022-09-28T14:36:59.731Z,233
2022-09-28T14:39:00.710Z,233
2022-09-28T14:41:02.473Z,233
2022-09-28T14:43:03.781Z,235
2022-09-28T14:45:06.521Z,235
2022-09-28T14:47:06.914Z,235
2022-09-28T14:49:08.725Z,235
2022-09-28T14:52:12.000Z,235
2022-09-28T14:54:12.918Z,235
2022-09-28T14:56:13.811Z,3
2022-09-28T15:02:18.438Z,267
2022-09-28T15:04:19.853Z,267
2022-09-28T15:06:20.594Z,206
2022-09-28T15:08:21.959Z,206
2022-09-28T15:12:24.798Z,209
2022-09-28T15:14:26.575Z,209
2022-09-28T15:16:28.070Z,190
2022-09-28T15:18:29.825Z,243
2022-09-28T15:22:32.273Z,243
2022-09-28T15:24:34.095Z,243
2022-09-28T15:26:35.388Z,252
2022-09-28T15:28:37.173Z,252
2022-09-28T15:30:38.667Z,188
2022-09-28T15:32:39.529Z,197
2022-09-28T15:34:40.875Z,202
2022-09-28T15:36:42.594Z,5
2022-09-28T15:38:44.101Z,2
2022-09-28T15:42:46.370Z,317
2022-09-28T15:44:47.522Z,247
2022-09-28T15:48:50.256Z,247
2022-09-28T15:50:51.510Z,247
2022-09-28T15:52:52.815Z,247
2022-09-28T15:54:53.723Z,242
2022-09-28T15:58:56.590Z,238
2022-09-28T16:00:57.578Z,238
2022-09-28T16:02:59.137Z,240
2022-09-28T16:07:01.792Z,239
2022-09-28T16:11:04.558Z,197
2022-09-28T16:13:05.580Z,197
2022-09-28T16:15:06.675Z,197
2022-09-28T16:17:08.443Z,197
2022-09-28T16:21:10.617Z,197
2022-09-28T16:23:11.893Z,197
2022-09-28T16:25:13.374Z,197
2022-09-28T16:27:14.384Z,197
2022-09-28T16:29:16.206Z,197
2022-09-28T16:31:17.955Z,197
2022-09-28T16:33:19.011Z,197
2022-09-28T16:35:20.072Z,197
2022-09-28T16:37:21.861Z,197
2022-09-28T16:43:27.249Z,197
2022-09-28T16:45:28.085Z,197
2022-09-28T16:47:29.691Z,197
2022-09-28T16:49:31.513Z,197
2022-09-28T16:53:34.591Z,197
2022-09-28T16:55:40.314Z,197
2022-09-28T16:57:37.690Z,197
2022-09-28T16:59:38.761Z,197
2022-09-28T17:03:40.916Z,197
2022-09-28T17:05:42.158Z,197
2022-09-28T17:07:43.680Z,197
2022-09-28T17:09:44.752Z,197
2022-09-28T17:11:46.649Z,197
2022-09-28T17:13:48.201Z,197
2022-09-28T17:15:49.360Z,197
2022-09-28T17:17:50.869Z,197
2022-09-28T17:19:52.683Z,197
2022-09-28T17:21:54.551Z,197
2022-09-28T17:23:56.165Z,197
2022-09-28T17:25:57.839Z,197
2022-09-28T17:27:59.081Z,197
2022-09-28T17:32:02.522Z,197
2022-09-28T17:36:06.045Z,77
2022-09-28T17:38:07.752Z,77
2022-09-28T17:40:09.541Z,77
2022-09-28T17:42:11.409Z,77
2022-09-28T17:44:12.736Z,77
2022-09-28T17:46:14.451Z,77
2022-09-28T17:48:15.584Z,77
2022-09-28T17:50:16.814Z,77
2022-09-28T17:52:18.252Z,77
2022-09-28T17:54:20.173Z,77
2022-09-28T17:56:21.695Z,77
2022-09-28T17:58:22.910Z,77
2022-09-28T18:00:24.200Z,77
2022-09-28T18:02:26.065Z,77
2022-09-28T18:04:50.584Z,77
2022-09-28T18:06:28.369Z,77
2022-09-28T18:08:29.701Z,77
2022-09-28T18:10:31.051Z,77
2022-09-28T18:12:32.325Z,77
2022-09-28T18:14:34.201Z,77
2022-09-28T18:18:36.397Z,77
2022-09-28T18:20:37.595Z,77
2022-09-28T18:22:39.453Z,77
2022-09-28T18:24:40.551Z,77
2022-09-28T18:28:44.075Z,77
2022-09-28T18:30:45.834Z,77
2022-09-28T18:32:47.701Z,77
2022-09-28T18:34:48.885Z,77
2022-09-28T18:38:51.605Z,77
2022-09-28T18:40:52.682Z,77
2022-09-28T18:42:54.513Z,77
2022-09-28T18:44:55.762Z,77
2022-09-28T18:51:00.701Z,77
2022-09-28T18:53:02.110Z,77
2022-09-28T18:55:03.911Z,77
2022-09-28T18:57:05.295Z,77
2022-09-28T19:03:10.209Z,77
2022-09-28T19:07:13.152Z,77
2022-09-28T19:11:16.777Z,77
2022-09-28T19:13:18.329Z,77
2022-09-28T19:15:19.675Z,77
2022-09-28T19:17:20.946Z,77
2022-09-28T19:21:23.523Z,77
2022-09-28T19:23:25.348Z,77
2022-09-28T19:25:26.477Z,77
2022-09-28T19:27:27.864Z,77
2022-09-28T19:31:30.379Z,77
2022-09-28T19:33:32.039Z,77
2022-09-28T19:35:33.298Z,77
2022-09-28T19:37:35.320Z,77
2022-09-28T19:39:36.342Z,77
2022-09-28T19:43:38.392Z,77
2022-09-28T19:47:40.567Z,77
2022-09-28T19:49:41.817Z,77
2022-09-28T19:51:51.625Z,77
2022-09-28T19:53:44.985Z,77
2022-09-28T19:55:46.394Z,77
2022-09-28T19:59:52.474Z,77
2022-09-28T20:01:50.207Z,77
2022-09-28T20:03:51.994Z,77
2022-09-28T20:05:53.302Z,77
2022-09-28T20:09:56.422Z,77
2022-09-28T20:11:58.165Z,77
2022-09-28T20:16:01.183Z,77
2022-09-28T20:18:02.682Z,77
2022-09-28T20:20:04.429Z,77
2022-09-28T20:22:06.396Z,77
2022-09-28T20:24:07.567Z,77
2022-09-28T20:26:08.703Z,77
2022-09-28T20:28:09.985Z,77
2022-09-28T20:30:11.245Z,77
2022-09-28T20:32:13.195Z,77
2022-09-28T20:34:14.637Z,77
2022-09-28T20:36:15.836Z,77
2022-09-28T20:38:17.753Z,77
2022-09-28T20:42:21.383Z,77
2022-09-28T20:44:23.340Z,77
2022-09-28T20:46:25.350Z,77
2022-09-28T20:48:26.440Z,77
2022-09-28T20:50:28.182Z,77
2022-09-28T20:52:28.693Z,77
2022-09-28T20:54:29.943Z,77
2022-09-28T20:56:31.331Z,77
2022-09-28T20:58:32.379Z,77
2022-09-28T21:00:33.393Z,77
2022-09-28T21:02:34.639Z,77
2022-09-28T21:04:35.991Z,77
2022-09-28T21:08:38.403Z,77
2022-09-28T21:10:40.182Z,77
2022-09-28T21:12:41.952Z,77
2022-09-28T21:14:43.306Z,77
2022-09-28T21:16:44.704Z,77
2022-09-28T21:18:46.539Z,77
2022-09-28T21:22:49.961Z,77
2022-09-28T21:24:51.900Z,77
2022-09-28T21:26:53.012Z,77
2022-09-28T21:28:54.168Z,77
2022-09-28T21:32:57.066Z,77
2022-09-28T21:34:58.048Z,77
2022-09-28T21:35:41.922Z,77
2022-09-28T21:37:43.721Z,77
2022-09-28T21:39:45.140Z,77
2022-09-28T21:41:46.776Z,77
2022-09-28T21:43:47.856Z,77
2022-09-28T21:45:49.446Z,77
2022-09-28T21:49:51.934Z,77
2022-09-28T21:51:53.722Z,77
2022-09-28T21:55:56.610Z,77
2022-09-28T21:57:58.228Z,77
2022-09-28T21:59:59.456Z,77
2022-09-28T22:02:00.556Z,77
2022-09-28T22:06:03.972Z,77
2022-09-28T22:08:05.166Z,77
2022-09-28T22:10:06.331Z,77
2022-09-28T22:14:09.384Z,77
2022-09-28T22:18:12.641Z,77
2022-09-28T22:20:14.129Z,77
2022-09-28T22:22:15.855Z,77
2022-09-28T22:24:17.132Z,77
2022-09-28T22:28:20.482Z,77
2022-09-28T22:32:23.809Z,77
2022-09-28T22:34:25.215Z,77
2022-09-28T22:36:27.151Z,77
2022-09-28T22:38:28.321Z,77
2022-09-28T22:40:29.772Z,77
2022-09-28T22:42:31.045Z,77
2022-09-28T22:44:32.869Z,77
2022-09-28T22:46:34.454Z,77
2022-09-28T22:48:35.560Z,77
2022-09-28T22:50:36.777Z,77
2022-09-28T22:52:38.021Z,77
2022-09-28T22:54:39.147Z,77
2022-09-28T22:58:42.237Z,77
2022-09-28T23:00:43.692Z,77
2022-09-28T23:02:44.878Z,77
2022-09-28T23:06:47.363Z,77
2022-09-28T23:10:49.515Z,77
2022-09-28T23:12:50.661Z,77
2022-09-28T23:14:52.337Z,77
2022-09-28T23:16:53.463Z,77
2022-09-28T23:18:55.288Z,77
2022-09-28T23:20:56.586Z,77
2022-09-28T23:22:58.156Z,77
2022-09-28T23:24:59.785Z,77
2022-09-28T23:27:01.441Z,77
2022-09-28T23:29:03.288Z,77
2022-09-28T23:31:04.475Z,77
2022-09-28T23:33:05.457Z,77
2022-09-28T23:35:07.195Z,77
2022-09-28T23:37:08.544Z,77
2022-09-28T23:39:10.480Z,77
2022-09-28T23:43:13.229Z,77
2022-09-28T23:45:14.960Z,77
2022-09-28T23:49:18.094Z,77
2022-09-28T23:53:20.962Z,77
2022-09-28T23:55:22.222Z,77
2022-09-28T23:59:24.545Z,77
